Time;durP1;ratioP1;P1;durP2;ratioP2;P2;SDS_P1;SDS_P2;PMS_P1;PMS_P2;Temp;Humidity;BMP_temperature;BMP_pressure;BME280_temperature;BME280_humidity;BME280_pressure;Samples;Min_cycle;Max_cycle;Signal;HPM_P1;HPM_P2
2022/06/03 11:37:25;;;;;;;2.00;1.90;;;9.90;69.00;;;;;;5163377;27;20620;-71
2022/06/03 11:40:00;;;;;;;2.30;2.10;;;7.20;70.70;;;;;;5163706;27;20183;-70
2022/06/03 11:42:48;;;;;;;2.00;1.90;;;6.50;69.30;;;;;;5165387;27;20168;-72
2022/06/03 11:45:22;;;;;;;2.23;2.13;;;6.60;68.80;;;;;;5158676;27;20199;-70
2022/06/03 11:48:02;;;;;;;6.03;2.00;;;5.60;67.50;;;;;;5167154;27;20288;-70
2022/06/03 11:50:31;;;;;;;2.67;2.47;;;6.90;67.10;;;;;;5163816;27;20163;-69
2022/06/03 11:52:57;;;;;;;1.87;1.77;;;7.00;66.60;;;;;;5154203;27;20164;-69
2022/06/03 11:55:27;;;;;;;5.47;1.70;;;6.70;70.60;;;;;;5167244;27;20168;-70
2022/06/03 11:58:19;;;;;;;2.17;1.60;;;7.40;69.40;;;;;;5174992;27;20156;-70
2022/06/03 12:00:55;;;;;;;22.67;3.03;;;7.30;67.30;;;;;;5173870;27;20204;-74
2022/06/03 12:03:27;;;;;;;2.57;1.80;;;7.20;68.70;;;;;;5173440;27;20164;-72
2022/06/03 12:06:23;;;;;;;1.77;1.60;;;7.70;70.30;;;;;;5173946;27;20203;-71
2022/06/03 12:08:58;;;;;;;5.27;2.40;;;6.20;65.20;;;;;;5162637;27;20188;-70
2022/06/03 12:14:39;;;;;;;1.93;1.27;;;8.80;66.50;;;;;;5164811;27;20179;-70
2022/06/03 12:17:11;;;;;;;1.80;1.70;;;9.30;68.40;;;;;;5151751;27;20251;-71
2022/06/03 12:19:49;;;;;;;1.97;1.80;;;7.30;67.40;;;;;;5152623;27;20643;-71
2022/06/03 12:22:31;;;;;;;1.60;1.60;;;8.90;70.80;;;;;;5167851;27;20172;-70
2022/06/03 12:24:59;;;;;;;2.10;1.50;;;8.70;71.60;;;;;;5162859;27;20284;-74
2022/06/03 12:27:35;;;;;;;2.30;2.10;;;9.80;73.10;;;;;;5155682;27;20240;-70
2022/06/03 12:30:14;;;;;;;2.27;2.07;;;10.10;72.20;;;;;;5157433;27;20299;-72
2022/06/03 12:32:49;;;;;;;1.90;1.80;;;8.90;70.60;;;;;;5151332;27;20184;-70
2022/06/03 12:35:47;;;;;;;2.10;2.00;;;7.60;66.50;;;;;;5149398;27;20602;-76
2022/06/03 12:38:19;;;;;;;2.10;2.00;;;8.40;65.00;;;;;;5136548;27;20257;-76
2022/06/03 12:40:46;;;;;;;5.23;1.80;;;9.20;63.40;;;;;;5135407;27;20196;-74
2022/06/03 12:43:29;;;;;;;2.20;1.97;;;9.00;66.00;;;;;;5138210;27;20169;-72
2022/06/03 12:46:03;;;;;;;1.60;1.60;;;9.80;66.20;;;;;;5137306;27;20288;-75
2022/06/03 12:48:45;;;;;;;3.03;1.73;;;9.10;66.40;;;;;;5137146;27;20185;-74
2022/06/03 12:51:25;;;;;;;2.70;1.97;;;9.80;63.80;;;;;;5137577;27;20172;-72
2022/06/03 12:54:05;;;;;;;4.70;1.43;;;9.80;68.00;;;;;;5137882;27;20177;-71
2022/06/03 12:56:50;;;;;;;1.93;1.83;;;10.00;65.60;;;;;;5135568;27;20547;-81
2022/06/03 12:59:31;;;;;;;2.60;2.40;;;9.90;65.10;;;;;;5138160;27;20252;-74
2022/06/03 13:02:00;;;;;;;1.80;1.73;;;10.70;66.20;;;;;;5137558;27;20587;-75
2022/06/03 13:04:26;;;;;;;4.03;1.93;;;9.60;66.40;;;;;;5137652;27;20169;-78
2022/06/03 13:07:10;;;;;;;1.60;1.50;;;25.60;76.30;;;;;;5137844;27;20520;-71
2022/06/03 13:09:55;;;;;;;1.60;1.50;;;26.90;77.10;;;;;;5131856;27;20181;-72
2022/06/03 13:12:32;;;;;;;2.27;2.17;;;26.80;76.70;;;;;;5135417;27;20173;-71
2022/06/03 13:15:21;;;;;;;1.87;1.70;;;8.90;65.00;;;;;;5126642;27;20177;-70
2022/06/03 13:20:49;;;;;;;2.37;2.27;;;9.40;63.20;;;;;;5137750;27;20178;-70
2022/06/03 13:23:25;;;;;;;2.33;2.10;;;9.40;63.50;;;;;;5136736;27;20200;-76
2022/06/03 13:25:54;;;;;;;3.03;1.83;;;10.30;67.40;;;;;;5137426;27;20196;-76
2022/06/03 13:28:40;;;;;;;2.70;1.80;;;8.70;66.10;;;;;;5136713;27;20169;-76
2022/06/03 13:31:20;;;;;;;2.17;1.97;;;9.30;63.80;;;;;;5137323;27;20185;-70
2022/06/03 13:34:32;;;;;;;2.10;1.97;;;8.70;63.80;;;;;;5135473;27;20204;-70
2022/06/03 13:37:21;;;;;;;1.30;1.30;;;10.80;63.10;;;;;;5128854;27;20208;-74
2022/06/03 13:40:16;;;;;;;1.70;1.60;;;10.60;66.40;;;;;;5134645;27;20471;-71
2022/06/03 13:42:59;;;;;;;1.90;1.80;;;10.80;64.40;;;;;;5136851;27;20443;-71
2022/06/03 13:45:46;;;;;;;1.80;1.70;;;10.90;65.00;;;;;;5135683;27;20196;-71
2022/06/03 13:48:35;;;;;;;1.70;1.60;;;10.00;65.40;;;;;;5135761;27;20170;-71
2022/06/03 13:51:15;;;;;;;2.43;2.33;;;10.60;67.40;;;;;;5128685;27;20196;-69
2022/06/03 13:53:51;;;;;;;1.67;1.67;;;10.50;65.50;;;;;;5136299;27;20180;-71
2022/06/03 13:56:22;;;;;;;2.40;2.30;;;10.70;66.60;;;;;;5133054;27;20218;-70
2022/06/03 13:58:48;;;;;;;2.57;2.17;;;10.10;65.20;;;;;;5116741;28;20158;-69
2022/06/03 14:01:31;;;;;;;3.40;1.60;;;25.50;77.80;;;;;;5117160;28;20342;-70
2022/06/03 14:04:16;;;;;;;5.43;2.20;;;25.20;76.10;;;;;;5116811;28;20200;-69
2022/06/03 14:06:52;;;;;;;1.83;1.73;;;22.90;73.10;;;;;;5116550;28;20202;-69
2022/06/03 14:09:49;;;;;;;2.57;1.73;;;10.10;70.70;;;;;;5116688;28;20238;-70
2022/06/03 14:12:25;;;;;;;1.73;1.63;;;10.20;68.50;;;;;;5112431;28;20182;-68
2022/06/03 14:15:04;;;;;;;1.80;1.70;;;11.10;69.60;;;;;;5116078;28;20170;-68
2022/06/03 14:17:45;;;;;;;2.10;1.70;;;11.70;70.30;;;;;;5117167;28;20249;-69
2022/06/03 14:20:21;;;;;;;2.20;1.70;;;11.40;70.00;;;;;;5116781;28;20457;-78
2022/06/03 14:23:09;;;;;;;2.93;2.27;;;12.00;68.70;;;;;;5115728;28;20177;-78
2022/06/03 14:25:38;;;;;;;4.83;1.53;;;11.70;70.00;;;;;;5116505;28;20194;-73
2022/06/03 14:28:14;;;;;;;1.67;1.53;;;11.80;69.90;;;;;;5116740;28;20165;-80
2022/06/03 14:30:49;;;;;;;1.80;1.70;;;11.80;68.50;;;;;;5116361;28;20182;-80
2022/06/03 14:33:16;;;;;;;1.90;1.80;;;11.80;68.40;;;;;;5114728;28;20256;-78
2022/06/03 14:35:47;;;;;;;1.73;1.63;;;12.40;68.20;;;;;;5116482;28;20225;-78
2022/06/03 14:38:24;;;;;;;6.83;1.80;;;12.40;70.00;;;;;;5115511;28;20162;-78
2022/06/03 14:40:51;;;;;;;1.33;1.23;;;25.80;77.40;;;;;;5116790;28;20197;-76
2022/06/03 14:43:24;;;;;;;2.27;1.27;;;26.20;75.60;;;;;;5116761;28;20576;-80
2022/06/03 14:45:53;;;;;;;2.58;1.77;;;11.80;64.50;;;;;;5129302;27;20252;-78
2022/06/03 14:48:26;;;;;;;2.60;2.05;;;11.50;61.30;;;;;;5135739;27;20275;-69
2022/06/03 14:51:16;;;;;;;4.75;2.00;;;11.40;60.10;;;;;;5135501;27;20169;-77
2022/06/03 14:53:52;;;;;;;2.45;2.17;;;12.10;62.00;;;;;;5134894;27;20203;-77
2022/06/03 14:56:31;;;;;;;3.50;2.17;;;13.80;59.50;;;;;;5134200;27;20177;-78
2022/06/03 14:59:01;;;;;;;2.17;2.08;;;14.90;57.00;;;;;;5135096;27;20221;-78
2022/06/03 15:01:47;;;;;;;1.20;1.20;;;14.60;62.30;;;;;;5135285;27;20509;-77
2022/06/03 15:04:22;;;;;;;1.77;1.67;;;14.70;57.90;;;;;;5136675;27;20196;-80
2022/06/03 15:07:05;;;;;;;2.20;2.10;;;14.60;59.10;;;;;;5115356;28;20207;-78
2022/06/03 15:09:34;;;;;;;1.63;1.63;;;15.00;61.10;;;;;;5119540;27;20216;-77
2022/06/03 15:12:06;;;;;;;1.83;1.60;;;15.00;58.20;;;;;;5135935;27;20608;-78
2022/06/03 15:14:37;;;;;;;1.75;1.65;;;15.80;57.20;;;;;;5133214;27;20166;-70
2022/06/03 15:17:04;;;;;;;5.90;1.67;;;15.40;58.00;;;;;;5135504;27;20170;-70
2022/06/03 15:19:39;;;;;;;2.30;1.83;;;15.50;60.00;;;;;;5135171;27;20170;-70
2022/06/03 15:22:29;;;;;;;1.65;1.55;;;15.60;57.70;;;;;;5131796;28;20190;-72
2022/06/03 15:25:16;;;;;;;3.15;1.73;;;16.40;57.50;;;;;;5134145;28;20193;-71
2022/06/03 15:27:58;;;;;;;2.67;1.90;;;17.00;58.90;;;;;;5132363;28;20195;-72
2022/06/03 15:30:39;;;;;;;4.40;2.20;;;15.80;56.60;;;;;;5132243;28;20192;-71
2022/06/03 15:33:44;;;;;;;1.85;1.75;;;15.90;58.00;;;;;;5132752;28;20180;-74
2022/06/03 15:36:19;;;;;;;2.85;2.45;;;15.80;57.30;;;;;;5132593;28;20599;-73
2022/06/03 15:38:48;;;;;;;2.00;1.90;;;15.50;56.00;;;;;;5132609;28;20169;-72
2022/06/03 15:41:21;;;;;;;5.10;1.98;;;15.10;54.50;;;;;;5134865;28;20170;-79
2022/06/03 15:43:54;;;;;;;2.13;1.98;;;15.20;56.40;;;;;;5132982;28;20173;-74
2022/06/03 15:46:25;;;;;;;2.45;2.25;;;14.50;56.30;;;;;;5134756;27;20195;-73
2022/06/03 15:48:54;;;;;;;3.35;2.38;;;15.20;56.50;;;;;;5133732;27;20280;-71
2022/06/03 15:51:21;;;;;;;3.30;2.95;;;27.20;64.70;;;;;;5134010;27;20169;-79
2022/06/03 15:53:57;;;;;;;2.83;2.67;;;29.00;68.50;;;;;;5134761;27;20518;-78
2022/06/03 15:56:48;;;;;;;2.38;2.17;;;28.10;68.80;;;;;;5132149;28;20165;-78
2022/06/03 15:59:25;;;;;;;2.63;2.47;;;15.50;58.00;;;;;;5133344;28;20161;-71
2022/06/03 16:02:12;;;;;;;4.60;1.70;;;15.50;59.90;;;;;;5134723;28;20169;-75
2022/06/03 16:05:06;;;;;;;9.80;1.83;;;16.20;63.30;;;;;;5132849;28;20219;-77
2022/06/03 16:07:40;;;;;;;1.88;1.70;;;16.50;60.30;;;;;;5134937;28;20170;-76
2022/06/03 16:10:27;;;;;;;3.08;1.85;;;17.00;61.20;;;;;;5133260;28;20161;-75
2022/06/03 16:12:59;;;;;;;2.60;1.85;;;16.40;60.30;;;;;;5137225;27;20166;-77
2022/06/03 16:15:53;;;;;;;2.58;2.38;;;16.20;60.90;;;;;;5138524;27;20169;-72
2022/06/03 16:18:38;;;;;;;2.95;2.10;;;16.30;60.00;;;;;;5136158;27;20176;-76
2022/06/03 16:21:07;;;;;;;2.37;2.17;;;16.50;60.20;;;;;;5136700;27;20173;-72
2022/06/03 16:23:38;;;;;;;3.03;2.03;;;16.80;63.60;;;;;;5138368;27;20176;-71
2022/06/03 16:26:31;;;;;;;7.77;2.90;;;17.10;63.10;;;;;;5138040;27;20679;-70
2022/06/03 16:29:34;;;;;;;5.13;2.40;;;16.40;64.20;;;;;;5136378;27;20605;-74
2022/06/03 16:32:12;;;;;;;2.20;2.10;;;16.60;64.30;;;;;;5135400;27;20192;-71
2022/06/03 16:35:04;;;;;;;2.57;2.47;;;16.30;65.20;;;;;;5135499;27;20192;-77
2022/06/03 16:37:34;;;;;;;2.80;2.60;;;16.30;61.60;;;;;;5117714;27;20190;-74
2022/06/03 16:40:18;;;;;;;6.50;3.00;;;16.30;59.90;;;;;;5135966;27;20172;-77
2022/06/03 16:42:59;;;;;;;2.47;2.37;;;17.10;60.80;;;;;;5136155;27;20205;-75
2022/06/03 16:46:05;;;;;;;2.43;2.33;;;16.20;61.40;;;;;;5136609;27;20275;-71
2022/06/03 16:49:07;;;;;;;2.87;2.60;;;17.10;66.10;;;;;;5125342;27;20254;-76
2022/06/03 16:51:35;;;;;;;6.77;1.80;;;27.20;70.80;;;;;;5138846;27;20210;-70
2022/06/03 16:54:03;;;;;;;4.77;2.43;;;27.10;69.00;;;;;;5137785;27;20165;-73
2022/06/03 16:56:35;;;;;;;3.03;2.50;;;27.00;72.80;;;;;;5138811;27;20587;-77
2022/06/03 16:59:20;;;;;;;3.17;2.17;;;26.70;72.30;;;;;;5138987;27;20174;-71
2022/06/03 17:01:49;;;;;;;2.63;2.13;;;26.60;71.10;;;;;;5138861;27;20169;-75
2022/06/03 17:04:40;;;;;;;6.60;2.67;;;26.30;72.10;;;;;;5138112;27;20162;-72
2022/06/03 17:07:06;;;;;;;6.33;3.67;;;26.20;71.70;;;;;;5132983;27;20212;-75
2022/06/03 17:09:36;;;;;;;5.63;2.73;;;26.10;72.00;;;;;;5138452;27;20165;-71
2022/06/03 17:12:06;;;;;;;3.20;3.00;;;25.90;72.50;;;;;;5137375;27;20215;-74
2022/06/03 17:14:39;;;;;;;2.80;2.53;;;25.70;74.70;;;;;;5138417;27;20177;-77
2022/06/03 17:17:21;;;;;;;3.73;2.93;;;25.70;74.50;;;;;;5137988;27;20591;-68
2022/06/03 17:19:50;;;;;;;2.57;2.47;;;25.60;74.10;;;;;;5138436;27;20172;-70
2022/06/03 17:22:28;;;;;;;4.27;2.80;;;25.50;80.00;;;;;;5137998;27;20290;-71
2022/06/03 17:25:26;;;;;;;3.37;3.07;;;25.30;78.10;;;;;;5137269;27;20193;-71
2022/06/03 17:28:16;;;;;;;2.53;2.43;;;25.20;77.00;;;;;;5110138;28;20185;-70
2022/06/03 17:31:17;;;;;;;4.13;3.17;;;25.20;76.70;;;;;;5117566;28;20182;-69
2022/06/03 17:34:08;;;;;;;3.40;3.10;;;25.00;75.70;;;;;;5110997;28;20203;-73
2022/06/03 17:36:46;;;;;;;3.30;3.00;;;25.00;76.60;;;;;;5134939;27;20208;-69
2022/06/03 17:39:21;;;;;;;4.30;2.90;;;25.00;77.50;;;;;;5130707;27;20208;-70
2022/06/03 17:42:16;;;;;;;3.30;3.07;;;25.00;77.70;;;;;;5134747;27;20176;-69
2022/06/03 17:45:01;;;;;;;2.20;2.10;;;24.90;78.80;;;;;;5135843;27;20264;-70
2022/06/03 17:48:18;;;;;;;3.27;2.53;;;24.90;77.70;;;;;;5135393;27;20238;-70
2022/06/03 17:50:44;;;;;;;7.13;2.97;;;24.90;78.90;;;;;;5107317;27;20200;-70
2022/06/03 17:56:43;;;;;;;5.40;2.80;;;24.80;75.40;;;;;;5135204;27;20191;-70
2022/06/03 17:59:26;;;;;;;3.60;2.17;;;24.70;77.20;;;;;;5129662;27;20173;-70
2022/06/03 18:02:16;;;;;;;3.00;2.73;;;24.70;76.80;;;;;;5134385;27;20165;-69
2022/06/03 18:05:03;;;;;;;3.37;2.53;;;24.60;77.20;;;;;;5132933;27;20719;-70
2022/06/03 18:07:48;;;;;;;2.70;2.23;;;24.50;78.90;;;;;;5134642;27;20165;-69
2022/06/03 18:10:36;;;;;;;2.30;2.10;;;24.40;80.20;;;;;;5133295;27;20218;-70
2022/06/03 18:13:13;;;;;;;3.67;2.30;;;24.40;82.30;;;;;;5135280;27;20181;-69
2022/06/03 18:15:40;;;;;;;4.10;2.70;;;24.30;83.80;;;;;;5134320;27;20181;-71
2022/06/03 18:18:10;;;;;;;4.00;2.87;;;24.30;80.90;;;;;;5135174;27;20246;-71
2022/06/03 18:20:39;;;;;;;2.50;2.30;;;24.40;81.40;;;;;;5135156;27;20201;-69
2022/06/03 18:23:24;;;;;;;2.70;2.13;;;24.50;80.40;;;;;;5135733;27;20629;-73
2022/06/03 18:26:09;;;;;;;2.63;2.10;;;24.40;81.80;;;;;;5135586;27;20232;-74
2022/06/03 18:28:45;;;;;;;2.97;2.77;;;24.30;84.20;;;;;;5135542;27;20211;-70
2022/06/03 18:31:35;;;;;;;3.50;2.37;;;24.30;82.70;;;;;;5136018;27;20248;-71
2022/06/03 18:34:12;;;;;;;3.07;2.67;;;24.20;83.60;;;;;;5132965;27;20161;-74
2022/06/03 18:36:54;;;;;;;2.53;2.30;;;24.20;83.90;;;;;;5135423;27;20197;-71
2022/06/03 18:39:45;;;;;;;5.30;2.70;;;24.20;85.00;;;;;;5133230;27;20226;-73
2022/06/03 18:45:39;;;;;;;2.90;2.80;;;24.00;84.60;;;;;;5134720;27;20277;-75
2022/06/03 18:48:20;;;;;;;3.00;2.50;;;23.90;85.30;;;;;;5129606;27;20246;-71
2022/06/03 18:51:07;;;;;;;4.13;2.37;;;23.80;86.30;;;;;;5133869;27;20172;-72
2022/06/03 18:54:00;;;;;;;2.43;2.27;;;23.70;86.60;;;;;;5134631;27;20227;-71
2022/06/03 18:56:57;;;;;;;2.87;2.60;;;23.70;85.20;;;;;;5132886;27;20169;-70
2022/06/03 18:59:26;;;;;;;3.83;2.53;;;23.50;86.70;;;;;;5132786;27;20218;-69
2022/06/03 19:02:04;;;;;;;2.73;2.50;;;23.40;89.00;;;;;;5136229;27;20177;-69
2022/06/03 19:04:42;;;;;;;4.00;2.57;;;23.40;86.80;;;;;;5133360;27;20528;-70
2022/06/03 19:07:35;;;;;;;2.30;2.20;;;23.30;86.80;;;;;;5133103;27;20181;-71
2022/06/03 19:10:17;;;;;;;4.77;2.90;;;23.10;89.60;;;;;;5132940;27;20177;-71
2022/06/03 19:13:02;;;;;;;4.73;2.93;;;22.90;91.20;;;;;;5133417;27;20259;-71
2022/06/03 19:15:54;;;;;;;5.30;2.47;;;22.60;90.30;;;;;;5133690;27;20230;-70
2022/06/03 19:18:45;;;;;;;2.30;2.20;;;22.10;91.00;;;;;;5124226;27;20525;-69
2022/06/03 19:21:39;;;;;;;3.00;2.87;;;10.50;84.00;;;;;;5134485;27;20177;-71
2022/06/03 19:24:14;;;;;;;3.63;2.47;;;10.50;85.30;;;;;;5120184;28;20185;-72
2022/06/03 19:26:48;;;;;;;3.43;3.23;;;10.80;86.60;;;;;;5132445;28;20548;-73
2022/06/03 19:29:22;;;;;;;3.70;3.07;;;11.10;86.10;;;;;;5135739;28;20228;-72
2022/06/03 19:32:00;;;;;;;3.17;2.77;;;11.10;86.10;;;;;;5133966;28;20245;-72
2022/06/03 19:34:32;;;;;;;4.10;3.70;;;10.70;87.40;;;;;;5133744;28;20471;-72
2022/06/03 19:37:26;;;;;;;6.37;3.13;;;11.00;87.30;;;;;;5135105;28;20215;-73
2022/06/03 19:40:35;;;;;;;2.00;1.90;;;10.50;88.00;;;;;;5132333;28;20197;-73
2022/06/03 19:43:21;;;;;;;2.70;2.50;;;9.90;90.00;;;;;;5132631;28;20185;-75
2022/06/03 19:45:56;;;;;;;2.73;2.33;;;10.00;90.10;;;;;;5133847;27;20197;-73
2022/06/03 19:48:49;;;;;;;2.50;2.40;;;10.50;90.40;;;;;;5135243;27;20157;-71
2022/06/03 19:51:19;;;;;;;2.77;2.43;;;9.20;90.90;;;;;;5139363;27;20185;-75
2022/06/03 19:53:54;;;;;;;2.97;2.87;;;8.50;91.50;;;;;;5137363;27;20180;-75
2022/06/03 19:56:31;;;;;;;4.03;2.60;;;8.60;92.20;;;;;;5139577;27;20188;-74
2022/06/03 19:59:10;;;;;;;7.17;2.13;;;8.20;92.80;;;;;;5139047;27;20169;-74
2022/06/03 20:01:36;;;;;;;3.07;2.10;;;8.10;91.90;;;;;;5136737;27;20272;-69
2022/06/03 20:04:11;;;;;;;4.07;3.10;;;7.70;91.60;;;;;;5121834;27;20657;-67
2022/06/03 20:06:44;;;;;;;4.13;2.80;;;8.30;92.10;;;;;;5119079;28;20213;-71
2022/06/03 20:09:23;;;;;;;4.27;3.90;;;8.40;91.90;;;;;;5092056;27;20741;-71
2022/06/03 20:14:58;;;;;;;3.27;3.07;;;7.10;95.80;;;;;;5134789;27;20277;-70
2022/06/03 20:17:30;;;;;;;3.87;3.20;;;7.10;98.90;;;;;;5137172;27;20234;-69
2022/06/03 20:20:00;;;;;;;5.70;4.37;;;6.60;99.90;;;;;;5139540;27;20644;-70
2022/06/03 20:22:38;;;;;;;3.63;3.43;;;6.30;99.90;;;;;;5139480;27;20188;-68
2022/06/03 20:25:07;;;;;;;4.37;3.93;;;5.40;99.90;;;;;;5138910;27;20202;-68
2022/06/03 20:27:53;;;;;;;4.67;4.27;;;6.00;99.90;;;;;;5138951;27;20275;-74
2022/06/03 20:30:31;;;;;;;8.00;4.33;;;4.60;99.90;;;;;;5135238;27;20636;-71
2022/06/03 20:33:28;;;;;;;4.83;4.40;;;4.70;99.90;;;;;;5136520;27;20172;-73
2022/06/03 20:36:00;;;;;;;5.83;4.90;;;4.50;99.90;;;;;;5138638;27;20212;-69
2022/06/03 20:38:48;;;;;;;6.97;6.20;;;4.20;99.90;;;;;;5138965;27;20545;-75
2022/06/03 20:41:43;;;;;;;10.20;6.50;;;3.80;99.90;;;;;;5135915;27;20209;-69
2022/06/03 20:44:16;;;;;;;7.43;6.50;;;2.30;99.90;;;;;;5138124;27;20188;-69
2022/06/03 20:46:53;;;;;;;6.37;5.87;;;1.80;99.90;;;;;;5138675;27;20234;-70
2022/06/03 20:49:36;;;;;;;8.33;7.70;;;1.80;99.90;;;;;;5136748;27;20278;-69
2022/06/03 20:52:09;;;;;;;6.10;5.70;;;1.60;99.90;;;;;;5135508;27;20261;-69
2022/06/03 20:54:56;;;;;;;7.40;6.67;;;2.90;99.90;;;;;;5136218;27;20285;-69
2022/06/03 20:57:38;;;;;;;5.17;4.83;;;1.80;99.90;;;;;;5136685;27;20564;-69
2022/06/03 21:00:10;;;;;;;8.37;6.17;;;0.50;99.90;;;;;;5138145;27;20279;-71
2022/06/03 21:02:37;;;;;;;5.53;5.20;;;0.30;99.90;;;;;;5134926;27;20192;-72
2022/06/03 21:13:26;;;;;;;5.50;5.00;;;18.70;99.90;;;;;;5137014;27;20191;-69
2022/06/03 21:15:52;;;;;;;6.47;6.07;;;18.60;99.90;;;;;;5138630;27;20177;-72
2022/06/03 21:18:18;;;;;;;6.30;5.77;;;18.50;99.90;;;;;;5138463;27;20576;-71
2022/06/03 21:21:15;;;;;;;5.43;5.03;;;18.40;99.90;;;;;;5138593;27;20178;-68
2022/06/03 21:24:01;;;;;;;5.90;5.50;;;18.10;99.90;;;;;;5136078;27;20181;-70
2022/06/03 21:26:27;;;;;;;7.33;6.63;;;18.10;99.90;;;;;;5138468;27;20201;-70
2022/06/03 21:28:53;;;;;;;6.90;6.30;;;18.30;99.90;;;;;;5136912;27;20583;-69
2022/06/03 21:31:30;;;;;;;7.00;6.10;;;18.30;99.90;;;;;;5138428;27;20180;-69
2022/06/03 21:34:12;;;;;;;6.57;6.00;;;18.30;99.90;;;;;;5138245;27;20572;-70
2022/06/03 21:36:49;;;;;;;6.83;6.27;;;18.20;99.90;;;;;;5138158;27;20245;-68
2022/06/03 21:39:25;;;;;;;6.10;5.70;;;18.20;99.90;;;;;;5137853;27;20177;-69
2022/06/03 21:41:53;;;;;;;7.30;5.13;;;18.30;99.90;;;;;;5137368;27;20180;-70
2022/06/03 21:44:37;;;;;;;5.80;5.23;;;18.40;99.90;;;;;;5138368;27;20178;-70
2022/06/03 21:47:20;;;;;;;6.63;5.90;;;18.50;99.90;;;;;;5138346;27;20204;-72
2022/06/03 21:49:58;;;;;;;5.80;5.37;;;18.40;99.90;;;;;;5138153;27;20161;-70
2022/06/03 21:52:49;;;;;;;5.47;4.97;;;18.40;99.90;;;;;;5138351;27;20169;-74
2022/06/03 21:55:36;;;;;;;6.90;6.20;;;17.90;99.90;;;;;;5138188;27;20169;-68
2022/06/03 21:58:44;;;;;;;11.27;6.00;;;17.70;99.90;;;;;;5138045;27;20179;-74
2022/06/03 22:01:14;;;;;;;7.60;6.80;;;16.10;99.90;;;;;;5136827;27;20174;-74
2022/06/03 22:03:41;;;;;;;7.73;6.30;;;14.80;99.90;;;;;;5137842;27;20200;-74
2022/06/03 22:06:07;;;;;;;6.13;5.73;;;13.10;99.90;;;;;;5137809;27;20240;-75
2022/06/03 22:08:34;;;;;;;4.73;4.40;;;13.60;99.90;;;;;;5137655;27;20174;-71
2022/06/03 22:13:48;;;;;;;5.97;4.90;;;14.70;99.90;;;;;;5138156;27;20203;-74
2022/06/03 22:16:14;;;;;;;10.70;5.97;;;15.10;99.90;;;;;;5137890;27;20164;-72
2022/06/03 22:18:40;;;;;;;5.20;4.80;;;15.30;99.90;;;;;;5137653;27;20244;-72
2022/06/03 22:21:08;;;;;;;5.33;4.87;;;15.40;99.90;;;;;;5137813;27;20201;-73
2022/06/03 22:23:34;;;;;;;4.73;4.10;;;15.40;99.90;;;;;;5137565;27;20872;-71
2022/06/03 22:26:30;;;;;;;4.60;4.30;;;15.80;99.90;;;;;;5137703;27;20197;-72
2022/06/03 22:29:14;;;;;;;5.13;4.63;;;14.90;99.90;;;;;;5136432;27;20169;-71
2022/06/03 22:32:01;;;;;;;4.10;3.80;;;14.90;99.90;;;;;;5137661;27;20168;-75
2022/06/03 22:34:42;;;;;;;4.83;4.53;;;18.50;99.90;;;;;;5137438;27;20173;-75
2022/06/03 22:40:41;;;;;;;3.73;3.50;;;18.50;99.90;;;;;;5137613;27;20180;-75
2022/06/03 22:43:48;;;;;;;4.23;3.93;;;18.50;99.90;;;;;;5136391;27;20176;-74
2022/06/03 22:46:13;;;;;;;4.43;4.10;;;18.40;99.90;;;;;;5137354;27;20603;-74
2022/06/03 22:48:39;;;;;;;4.93;4.40;;;18.40;99.90;;;;;;5137374;27;20172;-75
2022/06/03 22:51:06;;;;;;;5.13;3.53;;;18.30;99.90;;;;;;5136935;27;20166;-74
2022/06/03 22:53:33;;;;;;;4.93;4.37;;;18.20;99.90;;;;;;5137205;27;20174;-75
2022/06/03 22:56:00;;;;;;;6.00;5.17;;;17.90;99.90;;;;;;5137190;27;20170;-72
2022/06/03 22:58:26;;;;;;;4.43;4.13;;;17.50;99.90;;;;;;5137117;27;20178;-72
2022/06/03 23:00:52;;;;;;;4.93;4.43;;;17.20;99.90;;;;;;5137008;27;20191;-74
2022/06/03 23:03:17;;;;;;;5.27;4.80;;;17.00;99.90;;;;;;5137070;27;20234;-72
2022/06/03 23:05:43;;;;;;;6.70;4.30;;;16.00;99.90;;;;;;5136812;27;20205;-73
2022/06/03 23:08:11;;;;;;;5.33;4.93;;;15.30;99.90;;;;;;5136965;27;20535;-71
2022/06/03 23:10:38;;;;;;;5.13;4.57;;;13.70;99.90;;;;;;5136893;27;20170;-76
2022/06/03 23:13:06;;;;;;;4.63;4.20;;;13.80;99.90;;;;;;5137111;27;20256;-73
2022/06/03 23:15:31;;;;;;;4.90;4.50;;;13.50;99.90;;;;;;5136250;27;20472;-75
2022/06/03 23:17:57;;;;;;;3.17;2.97;;;13.20;99.90;;;;;;5135876;27;20187;-77
2022/06/03 23:20:31;;;;;;;3.97;3.33;;;13.30;99.90;;;;;;5136301;27;20257;-72
2022/06/03 23:22:58;;;;;;;4.57;3.13;;;13.50;99.90;;;;;;5136866;27;20186;-73
2022/06/03 23:25:24;;;;;;;3.10;2.90;;;13.60;99.90;;;;;;5136680;27;20197;-75
2022/06/03 23:27:49;;;;;;;4.27;2.93;;;13.70;99.90;;;;;;5136689;27;20169;-73
2022/06/03 23:30:15;;;;;;;3.13;2.80;;;13.80;99.90;;;;;;5136557;28;20511;-75
2022/06/03 23:32:41;;;;;;;2.87;2.60;;;13.90;99.90;;;;;;5136899;27;20174;-71
2022/06/03 23:35:08;;;;;;;5.03;2.73;;;13.80;99.90;;;;;;5136004;27;20185;-73
2022/06/03 23:37:35;;;;;;;3.40;3.10;;;13.60;99.90;;;;;;5136746;27;20177;-71
2022/06/03 23:40:00;;;;;;;3.67;3.47;;;13.70;99.90;;;;;;5135512;28;20256;-71
2022/06/03 23:45:26;;;;;;;3.07;2.87;;;13.70;99.90;;;;;;5136705;28;20200;-74
2022/06/03 23:48:01;;;;;;;3.43;3.23;;;12.80;99.90;;;;;;5136634;27;20165;-73
2022/06/03 23:50:30;;;;;;;3.27;3.03;;;13.30;99.90;;;;;;5135004;27;20198;-71
2022/06/03 23:53:01;;;;;;;3.30;3.10;;;12.60;99.90;;;;;;5136322;27;20188;-74
2022/06/03 23:55:27;;;;;;;4.03;3.83;;;12.40;99.90;;;;;;5136085;27;20180;-75
2022/06/03 23:57:54;;;;;;;3.40;3.20;;;13.10;99.90;;;;;;5136228;27;20169;-71
